Time;durP1;ratioP1;P1;durP2;ratioP2;P2;SDS_P1;SDS_P2;PMS_P1;PMS_P2;Temp;Humidity;BMP_temperature;BMP_pressure;BME280_temperature;BME280_humidity;BME280_pressure;Samples;Min_cycle;Max_cycle;Signal;HPM_P1;HPM_P2
2023/04/19 00:01:02;;;;;;;3.35;1.95;;;;;;;7.03;100.00;92682.59;5075080;28;20044;-72
2023/04/19 00:03:29;;;;;;;9.02;4.45;;;;;;;7.07;100.00;92676.13;5073936;28;20053;-72
2023/04/19 00:05:57;;;;;;;2.88;1.77;;;;;;;7.04;100.00;92681.59;5067281;28;20051;-72
2023/04/19 00:08:26;;;;;;;2.22;1.55;;;;;;;7.08;100.00;92672.56;5066977;28;20523;-72
2023/04/19 00:10:53;;;;;;;3.40;2.13;;;;;;;7.02;100.00;92659.81;5067202;28;20588;-72
2023/04/19 00:13:20;;;;;;;1.63;0.80;;;;;;;7.08;100.00;92682.00;5066990;28;20079;-72
2023/04/19 00:15:47;;;;;;;1.75;0.85;;;;;;;7.10;100.00;92677.47;5067303;28;20041;-72
2023/04/19 00:18:14;;;;;;;1.70;0.80;;;;;;;7.13;100.00;92678.84;5066970;28;20135;-72
2023/04/19 00:20:41;;;;;;;1.42;0.80;;;;;;;7.09;100.00;92658.81;5075643;28;20093;-72
2023/04/19 00:23:08;;;;;;;1.50;0.82;;;;;;;7.24;100.00;92668.00;5076521;28;20052;-72
2023/04/19 00:25:36;;;;;;;2.17;0.90;;;;;;;7.20;100.00;92667.63;5067429;28;20048;-72
2023/04/19 00:28:04;;;;;;;1.80;1.10;;;;;;;7.20;100.00;92666.84;5066956;28;20161;-72
2023/04/19 00:30:30;;;;;;;1.90;1.05;;;;;;;7.16;100.00;92668.22;5054227;28;20049;-73
2023/04/19 00:32:57;;;;;;;1.80;1.13;;;;;;;7.08;100.00;92664.09;5067285;28;20461;-72
2023/04/19 00:35:24;;;;;;;1.75;0.90;;;;;;;7.12;100.00;92665.28;5067172;28;20060;-72
2023/04/19 00:37:50;;;;;;;2.80;1.02;;;;;;;7.16;100.00;92660.56;5067386;28;20098;-72
2023/04/19 00:40:17;;;;;;;2.17;0.90;;;;;;;7.18;100.00;92667.03;5067053;28;20052;-71
2023/04/19 00:42:45;;;;;;;1.65;0.82;;;;;;;7.16;100.00;92663.91;5067103;28;20084;-72
2023/04/19 00:45:15;;;;;;;2.28;1.17;;;;;;;6.98;100.00;92622.91;5067005;28;20088;-72
2023/04/19 00:47:42;;;;;;;2.42;0.95;;;;;;;7.21;100.00;92660.72;5066710;28;20048;-73
2023/04/19 00:50:09;;;;;;;2.92;1.27;;;;;;;7.30;100.00;92664.63;5067237;28;20044;-73
2023/04/19 00:52:36;;;;;;;2.40;1.13;;;;;;;7.43;100.00;92668.13;5067387;28;20048;-73
2023/04/19 00:55:04;;;;;;;2.30;1.25;;;;;;;7.28;100.00;92646.19;5067097;28;20461;-73
2023/04/19 00:57:31;;;;;;;1.98;1.02;;;;;;;7.32;100.00;92661.88;5067343;28;20064;-73
2023/04/19 01:00:00;;;;;;;1.98;1.20;;;;;;;7.33;100.00;92666.00;5067639;28;20067;-73
2023/04/19 01:02:27;;;;;;;2.65;1.50;;;;;;;7.30;100.00;92661.28;5071255;28;20102;-72
2023/04/19 01:04:54;;;;;;;2.33;1.40;;;;;;;7.27;100.00;92652.25;5071540;28;20055;-72
2023/04/19 01:07:21;;;;;;;2.60;1.40;;;;;;;7.26;100.00;92653.25;5071483;28;20045;-72
2023/04/19 01:09:47;;;;;;;2.33;1.15;;;;;;;7.21;100.00;92655.63;5071271;28;20105;-73
2023/04/19 01:12:14;;;;;;;3.20;1.73;;;;;;;7.26;100.00;92652.47;5071245;28;20633;-73
2023/04/19 01:14:41;;;;;;;2.70;1.60;;;;;;;7.22;100.00;92650.31;5071319;28;20473;-73
2023/04/19 01:17:09;;;;;;;2.42;1.30;;;;;;;7.22;100.00;92639.31;5070927;28;20048;-73
2023/04/19 01:19:37;;;;;;;2.80;1.70;;;;;;;7.34;100.00;92647.13;5071169;28;20084;-73
2023/04/19 01:22:05;;;;;;;2.72;1.75;;;;;;;7.33;100.00;92648.88;5069964;28;20047;-72
2023/04/19 01:24:33;;;;;;;3.10;1.73;;;;;;;7.35;100.00;92651.25;5070669;28;20048;-72
2023/04/19 01:27:01;;;;;;;3.38;2.30;;;;;;;7.25;100.00;92613.38;5090549;28;20568;-72
2023/04/19 01:29:27;;;;;;;3.50;2.03;;;;;;;7.48;100.00;92645.28;5090806;28;20149;-72
2023/04/19 01:31:54;;;;;;;3.20;2.17;;;;;;;7.61;100.00;92645.25;5090829;28;20047;-72
2023/04/19 01:34:22;;;;;;;3.05;2.15;;;;;;;7.51;100.00;92650.00;5090657;28;20545;-73
2023/04/19 01:36:48;;;;;;;2.90;2.00;;;;;;;7.56;100.00;92646.84;5084044;28;20080;-72
2023/04/19 01:39:15;;;;;;;3.40;2.33;;;;;;;7.62;100.00;92640.91;5090351;28;20452;-72
2023/04/19 01:41:43;;;;;;;2.75;2.05;;;;;;;7.69;100.00;92648.53;5091040;28;20083;-72
2023/04/19 01:44:10;;;;;;;3.33;2.00;;;;;;;7.68;100.00;92647.75;5090702;28;20140;-72
2023/04/19 01:46:37;;;;;;;2.90;1.90;;;;;;;7.57;100.00;92643.28;5090416;28;20065;-72
2023/04/19 01:49:04;;;;;;;4.38;2.42;;;;;;;7.62;100.00;92638.34;5091335;28;20083;-72
2023/04/19 01:51:31;;;;;;;4.55;2.38;;;;;;;7.72;100.00;92641.25;5090784;28;20094;-72
2023/04/19 01:53:57;;;;;;;3.58;2.15;;;;;;;7.80;100.00;92644.53;5090806;28;20048;-72
2023/04/19 01:56:25;;;;;;;3.58;2.38;;;;;;;7.77;100.00;92637.28;5090345;28;20085;-72
2023/04/19 01:58:53;;;;;;;3.30;2.00;;;;;;;7.72;100.00;92643.78;5090454;28;20123;-72
2023/04/19 02:01:19;;;;;;;3.88;2.60;;;;;;;7.79;100.00;92637.84;5090499;28;20040;-72
2023/04/19 02:03:46;;;;;;;3.88;1.90;;;;;;;7.71;100.00;92631.22;5090325;28;20044;-72
2023/04/19 02:06:13;;;;;;;3.13;2.08;;;;;;;7.68;100.00;92634.19;5090338;28;20048;-72
2023/04/19 02:08:41;;;;;;;3.60;2.60;;;;;;;7.67;100.00;92637.72;5089981;28;20076;-72
2023/04/19 02:11:09;;;;;;;4.72;3.17;;;;;;;7.62;100.00;92638.34;5090479;28;20051;-72
2023/04/19 02:13:36;;;;;;;5.63;3.35;;;;;;;7.61;100.00;92629.13;5075278;28;20131;-72
2023/04/19 02:16:04;;;;;;;4.00;2.60;;;;;;;7.56;100.00;92634.06;5070194;28;20052;-72
2023/04/19 02:18:31;;;;;;;3.78;2.38;;;;;;;7.45;100.00;92615.81;5070046;28;20052;-72
2023/04/19 02:20:59;;;;;;;3.92;2.90;;;;;;;7.37;100.00;92593.06;5080892;28;20047;-72
2023/04/19 02:23:26;;;;;;;4.28;2.75;;;;;;;7.52;100.00;92630.34;5090255;28;20454;-72
2023/04/19 02:25:54;;;;;;;4.00;2.78;;;;;;;7.41;100.00;92624.09;5090181;28;20044;-72
2023/04/19 02:28:21;;;;;;;3.70;2.72;;;;;;;7.35;100.00;92629.03;5089641;28;20136;-72
2023/04/19 02:30:48;;;;;;;3.83;2.50;;;;;;;7.39;100.00;92631.19;5090240;28;21007;-72
2023/04/19 02:33:16;;;;;;;3.60;2.63;;;;;;;7.37;100.00;92630.59;5089379;28;20055;-72
2023/04/19 02:35:43;;;;;;;3.63;2.67;;;;;;;7.15;100.00;92634.25;5090054;28;20048;-72
2023/04/19 02:38:09;;;;;;;4.93;3.10;;;;;;;7.09;100.00;92625.59;5063529;28;20097;-72
2023/04/19 02:40:36;;;;;;;4.85;3.40;;;;;;;7.04;100.00;92629.75;5089433;28;20054;-72
2023/04/19 02:43:04;;;;;;;4.40;3.17;;;;;;;7.06;100.00;92622.69;5089129;28;20097;-72
2023/04/19 02:45:30;;;;;;;4.07;2.90;;;;;;;7.07;100.00;92624.25;5089403;28;20067;-72
2023/04/19 02:47:58;;;;;;;4.15;3.17;;;;;;;7.04;100.00;92627.97;5088980;28;20608;-72
2023/04/19 02:50:27;;;;;;;4.63;3.58;;;;;;;7.08;100.00;92623.25;5089483;28;20044;-72
2023/04/19 02:52:54;;;;;;;4.38;2.97;;;;;;;7.03;100.00;92625.66;5089111;28;20093;-72
2023/04/19 02:55:21;;;;;;;4.65;3.20;;;;;;;7.02;100.00;92627.41;5089393;28;20185;-72
2023/04/19 02:57:47;;;;;;;4.00;3.30;;;;;;;7.08;100.00;92623.25;5088672;28;20151;-72
2023/04/19 03:00:14;;;;;;;5.57;3.97;;;;;;;7.17;100.00;92623.84;5088914;28;20047;-72
2023/04/19 03:02:42;;;;;;;4.13;3.20;;;;;;;7.26;100.00;92632.03;5088767;28;20496;-72
2023/04/19 03:05:10;;;;;;;4.80;2.92;;;;;;;7.33;100.00;92631.00;5089387;28;20052;-72
2023/04/19 03:07:38;;;;;;;3.85;3.13;;;;;;;7.33;100.00;92631.00;5089441;28;20094;-72
2023/04/19 03:10:06;;;;;;;4.47;3.15;;;;;;;7.45;100.00;92626.03;5088840;28;20052;-72
2023/04/19 03:12:32;;;;;;;10.52;6.50;;;;;;;7.45;100.00;92628.59;5089133;28;20442;-72
2023/04/19 03:14:59;;;;;;;37.97;19.83;;;;;;;7.51;100.00;92627.00;5088937;28;20040;-72
2023/04/19 03:17:26;;;;;;;58.13;29.70;;;;;;;7.56;100.00;92637.41;5088673;28;20048;-72
2023/04/19 03:19:52;;;;;;;54.22;27.42;;;;;;;7.58;100.00;92617.53;5088142;28;20040;-72
2023/04/19 03:22:19;;;;;;;9.13;6.07;;;;;;;7.66;100.00;92636.16;5088381;28;20080;-72
2023/04/19 03:24:47;;;;;;;11.57;7.28;;;;;;;7.72;100.00;92628.47;5088190;28;20521;-72
2023/04/19 03:27:14;;;;;;;8.45;5.80;;;;;;;7.81;100.00;92628.19;5088238;28;20074;-72
2023/04/19 03:29:40;;;;;;;7.00;5.03;;;;;;;7.88;100.00;92632.28;5087945;28;20040;-72
2023/04/19 03:32:07;;;;;;;7.45;5.00;;;;;;;7.97;100.00;92637.16;5088393;28;20404;-72
2023/04/19 03:34:34;;;;;;;5.80;4.40;;;;;;;7.98;100.00;92636.16;5088546;28;20051;-72
2023/04/19 03:37:00;;;;;;;5.22;4.05;;;;;;;7.98;100.00;92641.28;5088570;28;20040;-72
2023/04/19 03:39:27;;;;;;;6.95;4.07;;;;;;;7.83;100.00;92641.56;5088255;28;20125;-73
2023/04/19 03:41:55;;;;;;;6.72;4.40;;;;;;;7.88;100.00;92641.75;5087908;28;20090;-73
2023/04/19 03:44:22;;;;;;;5.82;4.22;;;;;;;7.80;100.00;92639.41;5088374;28;20071;-72
2023/04/19 03:46:48;;;;;;;5.50;4.22;;;;;;;7.91;100.00;92638.75;5088374;28;20143;-72
2023/04/19 03:49:15;;;;;;;9.77;4.47;;;;;;;7.91;100.00;92620.84;5087876;28;20545;-72
2023/04/19 03:51:42;;;;;;;8.07;4.63;;;;;;;8.06;100.00;92633.34;5088441;28;20443;-72
2023/04/19 03:54:08;;;;;;;15.73;5.88;;;;;;;8.16;100.00;92635.44;5088208;28;20094;-72
2023/04/19 03:56:35;;;;;;;13.07;5.78;;;;;;;8.16;100.00;92643.13;5088122;28;20043;-72
2023/04/19 03:59:03;;;;;;;8.82;5.05;;;;;;;8.11;100.00;92637.84;5083463;28;20094;-72
2023/04/19 04:01:30;;;;;;;5.53;4.63;;;;;;;7.95;100.00;92628.88;5079659;28;20040;-72
2023/04/19 04:03:56;;;;;;;6.68;4.85;;;;;;;7.88;100.00;92636.63;5088247;28;20080;-72
2023/04/19 04:06:23;;;;;;;7.32;5.03;;;;;;;7.78;100.00;92629.38;5087549;28;20052;-72
2023/04/19 04:08:50;;;;;;;8.00;5.65;;;;;;;7.78;100.00;92634.50;5087418;28;20076;-72
2023/04/19 04:11:17;;;;;;;11.70;5.45;;;;;;;7.84;100.00;92627.78;5087602;28;20538;-72
2023/04/19 04:13:45;;;;;;;10.73;5.82;;;;;;;8.00;100.00;92640.06;5087772;28;20047;-72
2023/04/19 04:16:13;;;;;;;9.30;5.07;;;;;;;7.97;100.00;92637.91;5088336;28;20461;-72
2023/04/19 04:18:40;;;;;;;6.93;5.40;;;;;;;7.83;100.00;92636.47;5087911;28;20048;-72
2023/04/19 04:21:06;;;;;;;9.20;6.10;;;;;;;7.82;100.00;92642.56;5087674;28;20097;-72
2023/04/19 04:23:33;;;;;;;7.95;5.63;;;;;;;7.67;100.00;92637.72;5087732;28;20079;-72
2023/04/19 04:26:01;;;;;;;7.93;6.13;;;;;;;7.67;100.00;92642.81;5086783;28;20497;-72
2023/04/19 04:28:28;;;;;;;6.28;5.53;;;;;;;7.50;100.00;92627.97;5087600;28;20051;-72
2023/04/19 04:30:56;;;;;;;8.40;6.13;;;;;;;7.65;100.00;92635.38;5074939;28;20052;-72
2023/04/19 04:33:25;;;;;;;8.18;6.70;;;;;;;7.64;100.00;92638.16;5087333;28;21779;-72
2023/04/19 04:35:52;;;;;;;7.10;5.63;;;;;;;7.66;100.00;92636.94;5086650;28;20430;-72
2023/04/19 04:38:19;;;;;;;7.25;5.30;;;;;;;7.60;100.00;92648.00;5060615;28;20087;-72
2023/04/19 04:40:50;;;;;;;8.00;5.93;;;;;;;7.64;100.00;92641.47;5086920;28;20126;-72
2023/04/19 04:43:17;;;;;;;10.75;6.07;;;;;;;7.76;100.00;92639.06;5087847;28;20483;-72
2023/04/19 04:45:44;;;;;;;16.55;6.45;;;;;;;7.63;100.00;92637.34;5087999;28;20048;-72
2023/04/19 04:48:10;;;;;;;15.40;6.68;;;;;;;7.74;100.00;92644.38;5087162;28;20482;-72
2023/04/19 04:50:39;;;;;;;12.15;6.35;;;;;;;7.65;100.00;92639.69;5083494;28;20049;-72
2023/04/19 04:53:06;;;;;;;9.70;6.07;;;;;;;7.65;100.00;92642.25;5075469;28;20782;-72
2023/04/19 04:55:32;;;;;;;10.95;6.07;;;;;;;7.75;100.00;92645.16;5086186;28;20887;-72
2023/04/19 04:57:59;;;;;;;13.65;5.57;;;;;;;7.84;100.00;92632.91;5086913;28;20040;-73
2023/04/19 05:00:26;;;;;;;13.63;5.70;;;;;;;7.85;100.00;92647.25;5087997;28;20067;-72
2023/04/19 05:02:52;;;;;;;7.63;5.18;;;;;;;8.02;100.00;92650.09;5087453;28;20044;-72
2023/04/19 05:05:19;;;;;;;15.65;5.93;;;;;;;8.12;100.00;92650.44;5086503;28;20508;-72
2023/04/19 05:07:47;;;;;;;13.48;6.00;;;;;;;8.09;100.00;92652.59;5087318;28;20489;-72
2023/04/19 05:10:14;;;;;;;15.93;6.20;;;;;;;8.19;100.00;92660.59;5077643;28;20096;-72
2023/04/19 05:12:41;;;;;;;14.50;7.00;;;;;;;8.08;100.00;92651.03;5087682;28;20052;-73
2023/04/19 05:15:10;;;;;;;17.15;6.60;;;;;;;7.84;100.00;92650.81;5087056;28;20129;-72
2023/04/19 05:17:37;;;;;;;16.00;6.65;;;;;;;7.97;100.00;92653.28;5087206;28;20127;-72
2023/04/19 05:20:05;;;;;;;12.57;6.53;;;;;;;7.84;100.00;92645.69;5087319;28;20132;-72
2023/04/19 05:22:32;;;;;;;13.02;6.00;;;;;;;7.94;100.00;92661.38;5084656;28;20438;-72
2023/04/19 05:25:01;;;;;;;10.45;6.45;;;;;;;8.09;100.00;92657.72;5087086;28;20137;-72
2023/04/19 05:27:27;;;;;;;9.02;5.57;;;;;;;8.09;100.00;92657.72;5086685;28;20048;-72
2023/04/19 05:29:54;;;;;;;12.45;5.88;;;;;;;8.25;100.00;92659.75;5086549;28;20124;-72
2023/04/19 05:32:21;;;;;;;11.80;5.40;;;;;;;8.47;100.00;92653.50;5086376;28;20056;-72
2023/04/19 05:34:47;;;;;;;8.43;4.78;;;;;;;8.46;100.00;92659.63;5086952;28;20063;-72
2023/04/19 05:37:14;;;;;;;10.60;5.40;;;;;;;8.37;100.00;92667.56;5076322;28;20048;-72
2023/04/19 05:39:41;;;;;;;8.95;4.80;;;;;;;8.34;100.00;92667.19;5083471;28;20593;-72
2023/04/19 05:42:09;;;;;;;6.82;4.60;;;;;;;8.25;100.00;92661.56;5087049;28;20416;-72
2023/04/19 05:44:35;;;;;;;8.40;4.57;;;;;;;8.38;100.00;92665.78;5086562;28;20125;-72
2023/04/19 05:47:02;;;;;;;7.47;4.40;;;;;;;8.49;100.00;92666.88;5088709;28;20105;-72
2023/04/19 05:49:29;;;;;;;7.72;4.13;;;;;;;8.48;100.00;92660.97;5089886;28;20420;-72
2023/04/19 05:51:55;;;;;;;8.82;4.75;;;;;;;8.70;100.00;92668.28;5090285;28;20116;-72
2023/04/19 05:54:22;;;;;;;7.47;4.18;;;;;;;8.81;100.00;92670.16;5090378;28;20044;-72
2023/04/19 05:56:49;;;;;;;7.18;4.55;;;;;;;8.79;100.00;92677.28;5090235;28;20040;-72
2023/04/19 05:59:17;;;;;;;6.70;3.50;;;;;;;8.69;100.00;92664.16;5090299;28;20546;-72
2023/04/19 06:01:44;;;;;;;6.72;4.22;;;;;;;8.89;100.00;92665.75;5090299;28;20048;-72
2023/04/19 06:04:11;;;;;;;7.30;4.20;;;;;;;9.07;100.00;92673.44;5090210;28;20485;-72
2023/04/19 06:06:38;;;;;;;9.02;4.07;;;;;;;9.23;100.00;92671.31;5089694;28;20192;-72
2023/04/19 06:09:05;;;;;;;8.60;4.75;;;;;;;9.23;100.00;92645.69;5090778;28;20161;-72
2023/04/19 06:11:32;;;;;;;6.32;4.53;;;;;;;9.44;100.00;92669.31;5090114;28;20062;-72
2023/04/19 06:13:59;;;;;;;6.65;3.65;;;;;;;9.57;100.00;92679.41;5089868;28;20060;-72
2023/04/19 06:16:27;;;;;;;4.47;3.00;;;;;;;9.48;100.00;92678.13;5090293;28;20101;-73
2023/04/19 06:18:54;;;;;;;3.75;2.70;;;;;;;9.47;100.00;92686.81;5085056;28;20048;-72
2023/04/19 06:21:20;;;;;;;5.63;3.30;;;;;;;9.61;100.00;92679.75;5083572;28;20451;-72
2023/04/19 06:23:47;;;;;;;6.68;3.60;;;;;;;9.73;100.00;92684.94;5068763;28;20040;-72
2023/04/19 06:26:14;;;;;;;3.33;2.63;;;;;;;9.75;100.00;92682.94;5089474;28;20051;-73
2023/04/19 06:28:41;;;;;;;5.03;3.08;;;;;;;9.43;100.00;92680.53;5089640;28;20079;-72
2023/04/19 06:31:07;;;;;;;4.72;3.30;;;;;;;9.63;100.00;92691.34;5089874;28;20087;-72
2023/04/19 06:33:35;;;;;;;4.75;2.58;;;;;;;9.56;100.00;92692.44;5089600;28;20048;-73
2023/04/19 06:36:02;;;;;;;8.52;2.95;;;;;;;9.50;100.00;92678.72;5089305;28;20460;-73
2023/04/19 06:38:29;;;;;;;12.65;4.47;;;;;;;9.80;100.00;92695.09;5089218;28;20083;-73
2023/04/19 06:40:56;;;;;;;11.68;4.50;;;;;;;9.70;100.00;92698.19;5089621;28;20079;-72
2023/04/19 06:43:23;;;;;;;7.43;3.50;;;;;;;9.46;100.00;92698.06;5089304;28;20089;-73
2023/04/19 06:45:57;;;;;;;6.90;2.90;;;;;;;9.39;100.00;92667.38;5089390;28;20043;-73
2023/04/19 06:48:23;;;;;;;8.07;2.75;;;;;;;9.54;100.00;92695.22;5089814;28;20048;-72
2023/04/19 06:50:52;;;;;;;6.78;3.00;;;;;;;9.56;100.00;92695.78;5089135;28;20504;-72
2023/04/19 06:53:18;;;;;;;8.55;3.75;;;;;;;9.67;100.00;92698.63;5089484;28;20464;-72
2023/04/19 06:55:45;;;;;;;7.90;3.17;;;;;;;9.74;100.00;92700.13;5089090;28;20362;-73
2023/04/19 06:58:12;;;;;;;5.03;2.53;;;;;;;9.76;100.00;92697.31;5088295;28;20083;-73
2023/04/19 07:00:38;;;;;;;4.47;3.10;;;;;;;9.62;100.00;92687.22;5089207;28;20051;-73
2023/04/19 07:03:05;;;;;;;5.30;3.50;;;;;;;9.86;100.00;92694.25;5089071;28;20084;-73
2023/04/19 07:05:32;;;;;;;7.80;4.20;;;;;;;9.87;100.00;92704.28;5088701;28;20089;-73
2023/04/19 07:08:00;;;;;;;4.93;2.80;;;;;;;9.99;100.00;92700.97;5088982;28;20055;-73
2023/04/19 07:10:27;;;;;;;6.32;3.60;;;;;;;9.96;100.00;92699.63;5089263;28;20525;-73
2023/04/19 07:12:53;;;;;;;5.07;2.97;;;;;;;10.06;100.00;92700.88;5089002;28;20125;-73
2023/04/19 07:15:20;;;;;;;5.03;3.17;;;;;;;10.16;100.00;92701.13;5088293;28;20537;-72
2023/04/19 07:17:47;;;;;;;3.88;2.75;;;;;;;10.22;100.00;92700.25;5088997;28;20084;-72
2023/04/19 07:20:14;;;;;;;4.90;3.03;;;;;;;10.24;100.00;92697.47;5088695;28;20044;-72
2023/04/19 07:22:41;;;;;;;4.00;3.13;;;;;;;10.05;100.00;92694.97;5088768;28;20048;-73
2023/04/19 07:25:10;;;;;;;5.18;3.42;;;;;;;10.26;100.00;92703.97;5088106;28;20430;-73
2023/04/19 07:27:37;;;;;;;32.45;15.05;;;;;;;10.14;100.00;92708.28;5088258;28;20055;-73
2023/04/19 07:30:04;;;;;;;8.75;4.40;;;;;;;10.23;100.00;92698.47;5088986;28;20075;-73
2023/04/19 07:32:31;;;;;;;9.63;5.35;;;;;;;10.27;100.00;92705.50;5088475;28;20123;-73
2023/04/19 07:34:58;;;;;;;5.53;3.50;;;;;;;10.13;100.00;92706.69;5088654;28;20039;-73
2023/04/19 07:37:25;;;;;;;6.47;4.05;;;;;;;9.36;100.00;92689.09;5088235;28;20099;-73
2023/04/19 07:39:51;;;;;;;5.30;3.47;;;;;;;9.57;100.00;92674.28;5088580;28;20172;-73
2023/04/19 07:42:19;;;;;;;4.60;3.03;;;;;;;9.81;100.00;92705.13;5088264;28;20101;-73
2023/04/19 07:44:46;;;;;;;4.28;2.90;;;;;;;9.68;100.00;92705.31;5088458;28;20075;-73
2023/04/19 07:47:13;;;;;;;4.63;3.22;;;;;;;10.02;100.00;92706.47;5087663;28;20044;-73
2023/04/19 07:49:39;;;;;;;5.18;3.75;;;;;;;10.07;100.00;92687.84;5088206;28;20093;-73
2023/04/19 07:52:07;;;;;;;3.65;2.58;;;;;;;10.29;100.00;92707.88;5088197;28;20102;-73
2023/04/19 07:54:34;;;;;;;4.47;2.80;;;;;;;10.41;100.00;92680.44;5088448;28;20081;-73
2023/04/19 07:57:02;;;;;;;3.50;2.30;;;;;;;10.70;100.00;92700.38;5087988;28;20048;-72
2023/04/19 07:59:32;;;;;;;3.78;2.03;;;;;;;10.40;100.00;92696.03;5088012;28;20051;-73
2023/04/19 08:01:58;;;;;;;3.25;2.20;;;;;;;10.36;100.00;92700.84;5087530;28;20502;-72
2023/04/19 08:04:25;;;;;;;3.92;1.80;;;;;;;10.47;100.00;92699.34;5087793;28;20084;-73
2023/04/19 08:06:52;;;;;;;3.08;1.90;;;;;;;10.56;100.00;92697.22;5087795;28;20056;-73
2023/04/19 08:09:19;;;;;;;2.47;1.75;;;;;;;10.73;100.00;92699.91;5087636;28;20051;-73
2023/04/19 08:11:46;;;;;;;5.38;2.28;;;;;;;10.76;100.00;92693.53;5087596;28;20098;-73
2023/04/19 08:14:12;;;;;;;3.40;2.00;;;;;;;10.80;100.00;92681.81;5087916;28;20040;-73
2023/04/19 08:16:40;;;;;;;3.42;2.17;;;;;;;10.60;100.00;92688.06;5087304;28;20479;-73
2023/04/19 08:19:07;;;;;;;3.75;2.47;;;;;;;10.74;100.00;92693.75;5087832;28;20137;-73
2023/04/19 08:21:34;;;;;;;3.92;1.90;;;;;;;10.69;100.00;92697.00;5075935;28;20048;-73
2023/04/19 08:24:00;;;;;;;3.38;2.05;;;;;;;10.84;100.00;92688.09;5085295;28;20036;-73
2023/04/19 08:26:40;;;;;;;3.10;1.55;;;;;;;11.04;100.00;92689.50;5087870;28;20125;-73
2023/04/19 08:29:06;;;;;;;3.30;2.25;;;;;;;10.94;100.00;92693.41;5088422;28;20177;-72
2023/04/19 08:31:33;;;;;;;2.63;1.67;;;;;;;10.67;100.00;92688.75;5086551;28;20051;-73
2023/04/19 08:34:01;;;;;;;3.10;1.73;;;;;;;10.75;100.00;92694.56;5087348;28;20384;-73
2023/04/19 08:36:29;;;;;;;2.50;1.60;;;;;;;10.97;100.00;92689.63;5087733;28;20372;-72
2023/04/19 08:38:56;;;;;;;5.03;2.58;;;;;;;10.60;100.00;92684.72;5086962;28;20047;-73
2023/04/19 08:41:24;;;;;;;3.85;2.58;;;;;;;10.49;100.00;92688.81;5087194;28;20519;-73
2023/04/19 08:43:52;;;;;;;7.10;4.28;;;;;;;10.55;100.00;92696.44;5087581;28;20063;-73
2023/04/19 08:46:22;;;;;;;4.13;2.53;;;;;;;10.08;100.00;92683.47;5086869;28;20076;-73
2023/04/19 08:48:50;;;;;;;6.50;3.55;;;;;;;10.45;100.00;92685.94;5087596;28;20736;-73
2023/04/19 08:51:19;;;;;;;4.32;2.53;;;;;;;10.63;100.00;92676.56;5086864;28;20106;-73
2023/04/19 08:53:48;;;;;;;5.93;3.60;;;;;;;10.82;100.00;92680.59;5087510;28;20435;-73
2023/04/19 08:56:15;;;;;;;3.00;1.83;;;;;;;11.18;100.00;92687.47;5087157;28;20127;-73
2023/04/19 08:58:41;;;;;;;3.30;2.03;;;;;;;11.23;100.00;92685.81;5086989;28;20040;-72
2023/04/19 09:01:09;;;;;;;2.70;1.60;;;;;;;11.41;100.00;92685.88;5086262;28;20044;-73
2023/04/19 09:03:36;;;;;;;3.50;1.70;;;;;;;11.42;100.00;92666.84;5086640;28;20564;-72
2023/04/19 09:06:03;;;;;;;2.50;1.67;;;;;;;11.82;100.00;92683.28;5087222;28;20105;-73
2023/04/19 09:08:31;;;;;;;3.45;1.85;;;;;;;11.73;100.00;92682.88;5086578;28;20094;-73
2023/04/19 09:10:59;;;;;;;3.28;1.65;;;;;;;11.28;100.00;92682.56;5087117;28;20121;-73
2023/04/19 09:13:27;;;;;;;2.97;1.70;;;;;;;11.68;100.00;92675.06;5087046;28;20044;-73
2023/04/19 09:15:55;;;;;;;3.78;2.15;;;;;;;11.56;100.00;92680.25;5085455;28;20079;-73
2023/04/19 09:18:24;;;;;;;2.83;1.60;;;;;;;11.65;100.00;92678.88;5087361;28;20056;-73
2023/04/19 09:20:56;;;;;;;3.05;1.40;;;;;;;11.70;100.00;92668.69;5087380;28;20058;-72
2023/04/19 09:23:25;;;;;;;3.38;1.80;;;;;;;12.16;100.00;92655.84;5090952;28;20087;-73
2023/04/19 09:25:55;;;;;;;4.25;2.28;;;;;;;12.50;100.00;92669.78;5091101;28;20058;-73
2023/04/19 09:28:22;;;;;;;3.03;1.58;;;;;;;12.25;100.00;92666.56;5090673;28;20442;-73
2023/04/19 09:30:49;;;;;;;2.45;1.30;;;;;;;12.35;100.00;92665.94;5091613;28;20051;-73
2023/04/19 09:33:31;;;;;;;2.35;1.75;;;;;;;11.78;100.00;92667.53;5089929;28;20047;-73
2023/04/19 09:35:59;;;;;;;2.72;1.80;;;;;;;11.97;100.00;92652.69;5090211;28;20048;-73
2023/04/19 09:38:26;;;;;;;2.90;1.60;;;;;;;11.82;100.00;92665.28;5089982;28;20500;-73
2023/04/19 09:41:06;;;;;;;3.65;1.92;;;;;;;11.60;100.00;92669.28;5095282;28;20380;-74
2023/04/19 09:43:33;;;;;;;2.75;1.85;;;;;;;11.65;100.00;92662.66;5095230;28;20082;-73
2023/04/19 09:45:59;;;;;;;3.20;2.10;;;;;;;11.29;100.00;92662.78;5095070;28;20044;-73
2023/04/19 09:48:26;;;;;;;4.10;1.80;;;;;;;11.42;100.00;92657.38;5094722;28;20052;-74
2023/04/19 09:50:54;;;;;;;7.95;4.50;;;;;;;11.69;100.00;92658.63;5094769;28;20090;-73
2023/04/19 09:53:22;;;;;;;2.83;2.15;;;;;;;11.83;100.00;92662.47;5094999;28;20051;-73
2023/04/19 09:55:49;;;;;;;3.53;2.13;;;;;;;12.06;100.00;92654.91;5094645;28;20048;-73
2023/04/19 09:58:18;;;;;;;2.53;1.60;;;;;;;11.99;100.00;92648.06;5094602;28;20044;-73
2023/04/19 10:00:46;;;;;;;2.55;1.55;;;;;;;12.06;100.00;92658.25;5094514;28;20060;-73
2023/04/19 10:03:15;;;;;;;2.55;1.65;;;;;;;11.56;100.00;92657.09;5094346;28;20090;-73
2023/04/19 10:05:43;;;;;;;3.17;1.73;;;;;;;11.58;100.00;92662.81;5094554;28;20044;-73
2023/04/19 10:08:11;;;;;;;2.25;1.40;;;;;;;11.57;100.00;92659.44;5094294;28;20044;-73
2023/04/19 10:10:40;;;;;;;2.63;1.55;;;;;;;11.74;100.00;92640.69;5094671;28;20105;-73
2023/04/19 10:13:08;;;;;;;3.60;1.63;;;;;;;12.36;100.00;92646.13;5094301;28;20051;-73
2023/04/19 10:15:37;;;;;;;4.32;1.67;;;;;;;13.13;100.00;92646.41;5094573;28;20048;-73
2023/04/19 10:18:05;;;;;;;3.92;2.17;;;;;;;12.86;100.00;92638.56;5094359;28;20048;-73
2023/04/19 10:20:37;;;;;;;3.40;2.00;;;;;;;12.58;98.84;92640.25;5094504;28;20048;-74
2023/04/19 10:23:07;;;;;;;2.15;1.23;;;;;;;12.67;100.00;92651.72;5094031;28;20044;-73
2023/04/19 10:25:37;;;;;;;3.05;1.63;;;;;;;12.75;100.00;92646.16;5094427;28;20525;-73
2023/04/19 10:28:04;;;;;;;3.03;1.67;;;;;;;12.99;100.00;92632.28;5093955;28;20051;-73
2023/04/19 10:30:31;;;;;;;2.88;1.50;;;;;;;12.76;95.46;92649.50;5094022;28;20048;-73
2023/04/19 10:33:01;;;;;;;3.67;1.30;;;;;;;12.46;96.44;92645.50;5092399;28;20473;-73
2023/04/19 10:35:36;;;;;;;2.75;1.48;;;;;;;12.69;95.69;92650.47;5093824;28;20050;-73
2023/04/19 10:38:05;;;;;;;2.72;1.40;;;;;;;12.56;95.28;92645.63;5094114;28;20044;-74
2023/04/19 10:40:55;;;;;;;2.38;1.38;;;;;;;12.41;96.87;92638.47;5089639;28;20052;-73
2023/04/19 10:43:23;;;;;;;4.03;1.63;;;;;;;12.17;95.09;92612.84;5089043;28;20048;-73
2023/04/19 10:45:49;;;;;;;4.35;1.70;;;;;;;12.78;96.07;92635.38;5089271;28;20048;-73
2023/04/19 10:49:12;;;;;;;3.08;2.17;;;;;;;12.38;97.70;92579.69;5089410;28;20518;-73
2023/04/19 10:51:47;;;;;;;3.42;1.83;;;;;;;12.48;96.70;92618.47;5024584;28;20477;-73
2023/04/19 10:54:29;;;;;;;3.70;1.65;;;;;;;12.90;95.47;92639.66;5089283;28;20374;-73
2023/04/19 10:56:59;;;;;;;3.17;2.10;;;;;;;12.92;95.25;92630.66;5088974;28;20062;-73
2023/04/19 10:59:26;;;;;;;5.07;2.17;;;;;;;13.01;92.66;92630.25;5088973;28;20058;-74
2023/04/19 11:01:55;;;;;;;4.05;2.17;;;;;;;12.66;91.28;92637.28;5089181;28;20417;-73
2023/04/19 11:04:26;;;;;;;6.97;3.33;;;;;;;12.71;94.32;92632.19;5088981;28;20103;-74
2023/04/19 11:07:04;;;;;;;5.38;3.08;;;;;;;13.02;95.35;92606.81;5089019;28;20420;-73
2023/04/19 11:09:33;;;;;;;5.15;2.30;;;;;;;13.50;89.43;92577.94;5089007;28;20043;-74
2023/04/19 11:12:02;;;;;;;2.45;1.35;;;;;;;13.73;83.80;92618.19;5088663;28;20055;-74
2023/04/19 11:14:32;;;;;;;3.10;1.80;;;;;;;13.43;89.37;92610.88;5088759;28;20146;-73
2023/04/19 11:17:00;;;;;;;3.90;2.33;;;;;;;12.86;92.21;92617.97;5088615;28;20050;-74
2023/04/19 11:19:26;;;;;;;5.65;2.83;;;;;;;13.21;90.64;92616.84;5088641;28;20105;-74
2023/04/19 11:21:58;;;;;;;4.82;1.80;;;;;;;13.12;83.82;92621.63;5088222;28;20094;-73
2023/04/19 11:24:26;;;;;;;5.10;1.75;;;;;;;13.12;85.26;92626.00;5088352;28;20096;-74
2023/04/19 11:26:56;;;;;;;3.08;1.85;;;;;;;13.19;88.84;92619.66;5088443;28;20047;-73
2023/04/19 11:29:23;;;;;;;3.33;1.95;;;;;;;13.22;89.82;92613.22;5088614;28;20496;-73
2023/04/19 11:31:50;;;;;;;4.15;1.80;;;;;;;13.26;90.41;92616.91;5075460;28;20079;-73